sensor_id;sensor_type;location;lat;lon;timestamp;pressure;altitude;pressure_sealevel;temperature;humidity
5126;BME280;63008;53.112;8.896;2023-02-01T00:00:07;101334.94;;;6.38;74.57
5126;BME280;63008;53.112;8.896;2023-02-01T00:02:08;101330.06;;;6.35;74.84
5126;BME280;63008;53.112;8.896;2023-02-01T00:04:09;101324.31;;;6.37;74.62
5126;BME280;63008;53.112;8.896;2023-02-01T00:06:10;101314.22;;;6.37;75.01
5126;BME280;63008;53.112;8.896;2023-02-01T00:08:11;101331.63;;;6.41;74.57
5126;BME280;63008;53.112;8.896;2023-02-01T00:10:12;101320.72;;;6.41;74.66
5126;BME280;63008;53.112;8.896;2023-02-01T00:12:14;101324.81;;;6.39;75.05
5126;BME280;63008;53.112;8.896;2023-02-01T00:14:15;101308.69;;;6.42;74.65
5126;BME280;63008;53.112;8.896;2023-02-01T00:16:19;101321.22;;;6.43;74.70
5126;BME280;63008;53.112;8.896;2023-02-01T00:18:20;101314.59;;;6.49;74.76
5126;BME280;63008;53.112;8.896;2023-02-01T00:20:21;101307.84;;;6.47;74.59
5126;BME280;63008;53.112;8.896;2023-02-01T00:22:22;101319.00;;;6.45;74.70
5126;BME280;63008;53.112;8.896;2023-02-01T00:24:23;101313.50;;;6.50;74.37
5126;BME280;63008;53.112;8.896;2023-02-01T00:26:36;101316.00;;;6.47;74.51
5126;BME280;63008;53.112;8.896;2023-02-01T00:28:37;101303.69;;;6.49;74.54
5126;BME280;63008;53.112;8.896;2023-02-01T00:30:38;101301.56;;;6.46;74.59
5126;BME280;63008;53.112;8.896;2023-02-01T00:32:39;101306.25;;;6.41;75.11
5126;BME280;63008;53.112;8.896;2023-02-01T00:34:40;101303.50;;;6.46;75.02
5126;BME280;63008;53.112;8.896;2023-02-01T00:36:42;101306.22;;;6.46;74.70
5126;BME280;63008;53.112;8.896;2023-02-01T00:38:44;101301.03;;;6.44;75.00
5126;BME280;63008;53.112;8.896;2023-02-01T00:40:45;101308.84;;;6.51;74.79
5126;BME280;63008;53.112;8.896;2023-02-01T00:42:46;101292.75;;;6.54;74.37
5126;BME280;63008;53.112;8.896;2023-02-01T00:44:47;101313.72;;;6.54;74.42
5126;BME280;63008;53.112;8.896;2023-02-01T00:46:48;101310.47;;;6.52;74.67
5126;BME280;63008;53.112;8.896;2023-02-01T00:48:49;101304.06;;;6.61;74.10
5126;BME280;63008;53.112;8.896;2023-02-01T00:50:50;101310.47;;;6.52;74.75
5126;BME280;63008;53.112;8.896;2023-02-01T00:52:51;101304.06;;;6.61;73.62
5126;BME280;63008;53.112;8.896;2023-02-01T00:54:52;101296.78;;;6.57;73.87
5126;BME280;63008;53.112;8.896;2023-02-01T00:56:53;101306.06;;;6.56;74.43
5126;BME280;63008;53.112;8.896;2023-02-01T00:58:54;101298.13;;;6.59;73.98
5126;BME280;63008;53.112;8.896;2023-02-01T01:01:16;101296.19;;;6.60;74.15
5126;BME280;63008;53.112;8.896;2023-02-01T01:03:18;101288.41;;;6.53;74.30
5126;BME280;63008;53.112;8.896;2023-02-01T01:05:19;101294.94;;;6.52;74.10
5126;BME280;63008;53.112;8.896;2023-02-01T01:07:19;101296.56;;;6.53;74.38
5126;BME280;63008;53.112;8.896;2023-02-01T01:09:20;101290.00;;;6.54;73.86
5126;BME280;63008;53.112;8.896;2023-02-01T01:11:24;101288.31;;;6.58;73.89
5126;BME280;63008;53.112;8.896;2023-02-01T01:13:26;101280.94;;;6.59;73.96
5126;BME280;63008;53.112;8.896;2023-02-01T01:15:27;101273.06;;;6.57;74.16
5126;BME280;63008;53.112;8.896;2023-02-01T01:17:28;101272.03;;;6.53;74.06
5126;BME280;63008;53.112;8.896;2023-02-01T01:19:29;101279.03;;;6.59;73.76
5126;BME280;63008;53.112;8.896;2023-02-01T01:21:30;101270.84;;;6.59;74.02
5126;BME280;63008;53.112;8.896;2023-02-01T01:23:32;101264.88;;;6.57;74.07
5126;BME280;63008;53.112;8.896;2023-02-01T01:25:39;101265.31;;;6.64;73.59
5126;BME280;63008;53.112;8.896;2023-02-01T01:27:40;101259.56;;;6.66;73.54
5126;BME280;63008;53.112;8.896;2023-02-01T01:29:41;101265.41;;;6.59;73.89
5126;BME280;63008;53.112;8.896;2023-02-01T01:31:42;101251.75;;;6.59;73.88
5126;BME280;63008;53.112;8.896;2023-02-01T01:33:43;101258.59;;;6.57;74.06
5126;BME280;63008;53.112;8.896;2023-02-01T01:35:44;101244.19;;;6.56;74.25
5126;BME280;63008;53.112;8.896;2023-02-01T01:37:45;101244.78;;;6.53;74.29
5126;BME280;63008;53.112;8.896;2023-02-01T01:39:46;101253.97;;;6.57;74.11
5126;BME280;63008;53.112;8.896;2023-02-01T01:41:49;101236.28;;;6.55;74.42
5126;BME280;63008;53.112;8.896;2023-02-01T01:43:59;101240.56;;;6.61;74.09
5126;BME280;63008;53.112;8.896;2023-02-01T01:46:00;101250.88;;;6.64;73.98
5126;BME280;63008;53.112;8.896;2023-02-01T01:48:05;101238.88;;;6.65;73.76
5126;BME280;63008;53.112;8.896;2023-02-01T01:50:10;101236.66;;;6.67;73.98
5126;BME280;63008;53.112;8.896;2023-02-01T01:52:13;101238.56;;;6.66;74.07
5126;BME280;63008;53.112;8.896;2023-02-01T01:54:29;101242.09;;;6.67;73.97
5126;BME280;63008;53.112;8.896;2023-02-01T01:56:34;101238.56;;;6.66;74.07
5126;BME280;63008;53.112;8.896;2023-02-01T01:58:35;101224.91;;;6.66;74.36
5126;BME280;63008;53.112;8.896;2023-02-01T02:00:37;101221.91;;;6.68;74.27
5126;BME280;63008;53.112;8.896;2023-02-01T02:02:40;101234.00;;;6.62;74.69
5126;BME280;63008;53.112;8.896;2023-02-01T02:04:42;101225.00;;;6.61;74.40
5126;BME280;63008;53.112;8.896;2023-02-01T02:08:53;101221.50;;;6.61;74.51
5126;BME280;63008;53.112;8.896;2023-02-01T02:10:54;101209.75;;;6.60;74.77
5126;BME280;63008;53.112;8.896;2023-02-01T02:13:01;101210.19;;;6.67;74.16
5126;BME280;63008;53.112;8.896;2023-02-01T02:15:02;101212.47;;;6.60;74.71
5126;BME280;63008;53.112;8.896;2023-02-01T02:17:16;101203.47;;;6.60;74.58
5126;BME280;63008;53.112;8.896;2023-02-01T02:19:48;101200.03;;;6.54;74.86
5126;BME280;63008;53.112;8.896;2023-02-01T02:27:17;101201.81;;;6.64;74.41
5126;BME280;63008;53.112;8.896;2023-02-01T02:32:32;101184.63;;;6.63;74.51
5126;BME280;63008;53.112;8.896;2023-02-01T02:34:47;101171.59;;;6.60;74.85
5126;BME280;63008;53.112;8.896;2023-02-01T02:37:04;101154.72;;;6.58;74.56
5126;BME280;63008;53.112;8.896;2023-02-01T02:39:21;101178.94;;;6.60;74.47
5126;BME280;63008;53.112;8.896;2023-02-01T02:41:47;101163.63;;;6.64;74.05
5126;BME280;63008;53.112;8.896;2023-02-01T02:46:50;101168.56;;;6.62;74.10
5126;BME280;63008;53.112;8.896;2023-02-01T02:49:21;101169.97;;;6.59;74.23
5126;BME280;63008;53.112;8.896;2023-02-01T02:51:29;101150.66;;;6.56;74.23
5126;BME280;63008;53.112;8.896;2023-02-01T02:53:58;101159.34;;;6.58;74.34
5126;BME280;63008;53.112;8.896;2023-02-01T02:56:20;101153.31;;;6.61;74.21
5126;BME280;63008;53.112;8.896;2023-02-01T02:58:42;101148.25;;;6.54;74.46
5126;BME280;63008;53.112;8.896;2023-02-01T03:01:03;101153.91;;;6.58;74.43
5126;BME280;63008;53.112;8.896;2023-02-01T03:03:23;101146.31;;;6.55;74.34
5126;BME280;63008;53.112;8.896;2023-02-01T03:05:48;101145.53;;;6.54;74.40
5126;BME280;63008;53.112;8.896;2023-02-01T03:07:57;101136.25;;;6.55;74.64
5126;BME280;63008;53.112;8.896;2023-02-01T03:09:59;101145.53;;;6.54;74.95
5126;BME280;63008;53.112;8.896;2023-02-01T03:12:09;101132.19;;;6.53;74.87
5126;BME280;63008;53.112;8.896;2023-02-01T03:14:32;101134.69;;;6.49;75.37
5126;BME280;63008;53.112;8.896;2023-02-01T03:16:52;101125.94;;;6.52;74.88
5126;BME280;63008;53.112;8.896;2023-02-01T03:19:06;101120.47;;;6.52;75.45
5126;BME280;63008;53.112;8.896;2023-02-01T03:21:14;101108.53;;;6.48;75.51
5126;BME280;63008;53.112;8.896;2023-02-01T03:23:18;101116.94;;;6.52;75.62
5126;BME280;63008;53.112;8.896;2023-02-01T03:25:24;101117.53;;;6.49;75.97
5126;BME280;63008;53.112;8.896;2023-02-01T03:27:32;101111.06;;;6.45;76.81
5126;BME280;63008;53.112;8.896;2023-02-01T03:29:40;101111.34;;;6.43;77.38
5126;BME280;63008;53.112;8.896;2023-02-01T03:31:45;101111.13;;;6.40;77.97
5126;BME280;63008;53.112;8.896;2023-02-01T03:33:46;101117.47;;;6.35;79.46
5126;BME280;63008;53.112;8.896;2023-02-01T03:36:01;101113.06;;;6.21;81.90
5126;BME280;63008;53.112;8.896;2023-02-01T03:38:19;101102.94;;;6.08;83.07
5126;BME280;63008;53.112;8.896;2023-02-01T03:40:22;101112.13;;;5.93;84.62
5126;BME280;63008;53.112;8.896;2023-02-01T03:42:28;101096.22;;;5.82;85.64
5126;BME280;63008;53.112;8.896;2023-02-01T03:44:35;101095.94;;;5.83;85.15
5126;BME280;63008;53.112;8.896;2023-02-01T03:46:45;101088.16;;;5.72;86.14
5126;BME280;63008;53.112;8.896;2023-02-01T03:48:52;101111.94;;;5.66;86.71
5126;BME280;63008;53.112;8.896;2023-02-01T03:50:57;101092.13;;;5.61;87.66
5126;BME280;63008;53.112;8.896;2023-02-01T03:53:09;101092.47;;;5.54;88.05
5126;BME280;63008;53.112;8.896;2023-02-01T03:55:15;101081.34;;;5.51;87.99
5126;BME280;63008;53.112;8.896;2023-02-01T03:57:23;101089.53;;;5.51;87.22
5126;BME280;63008;53.112;8.896;2023-02-01T03:59:25;101079.16;;;5.53;87.34
5126;BME280;63008;53.112;8.896;2023-02-01T04:01:28;101082.97;;;5.52;87.58
5126;BME280;63008;53.112;8.896;2023-02-01T04:03:30;101080.31;;;5.47;88.01
5126;BME280;63008;53.112;8.896;2023-02-01T04:05:31;101084.66;;;5.48;87.89
5126;BME280;63008;53.112;8.896;2023-02-01T04:07:32;101081.72;;;5.44;87.88
5126;BME280;63008;53.112;8.896;2023-02-01T04:09:33;101094.75;;;5.47;87.78
5126;BME280;63008;53.112;8.896;2023-02-01T04:11:34;101098.88;;;5.45;88.39
5126;BME280;63008;53.112;8.896;2023-02-01T04:13:35;101081.28;;;5.37;89.55
5126;BME280;63008;53.112;8.896;2023-02-01T04:15:36;101090.53;;;5.36;88.99
5126;BME280;63008;53.112;8.896;2023-02-01T04:17:37;101078.91;;;5.31;89.68
5126;BME280;63008;53.112;8.896;2023-02-01T04:19:38;101074.69;;;5.20;90.19
5126;BME280;63008;53.112;8.896;2023-02-01T04:21:39;101065.47;;;5.16;89.94
5126;BME280;63008;53.112;8.896;2023-02-01T04:23:40;101049.81;;;5.08;91.07
5126;BME280;63008;53.112;8.896;2023-02-01T04:25:41;101035.47;;;5.03;91.62
5126;BME280;63008;53.112;8.896;2023-02-01T04:27:42;101037.94;;;4.99;91.87
5126;BME280;63008;53.112;8.896;2023-02-01T04:29:43;101027.88;;;5.00;92.34
5126;BME280;63008;53.112;8.896;2023-02-01T04:31:45;101032.16;;;5.06;92.38
5126;BME280;63008;53.112;8.896;2023-02-01T04:33:46;101029.94;;;5.08;92.55
5126;BME280;63008;53.112;8.896;2023-02-01T04:35:47;101035.91;;;5.10;92.60
5126;BME280;63008;53.112;8.896;2023-02-01T04:37:48;101033.16;;;5.15;92.51
5126;BME280;63008;53.112;8.896;2023-02-01T04:39:49;101045.06;;;5.19;92.30
5126;BME280;63008;53.112;8.896;2023-02-01T04:41:50;101032.50;;;5.23;92.38
5126;BME280;63008;53.112;8.896;2023-02-01T04:43:51;101017.75;;;5.29;92.08
5126;BME280;63008;53.112;8.896;2023-02-01T04:45:55;101007.56;;;5.34;91.73
5126;BME280;63008;53.112;8.896;2023-02-01T04:47:56;101006.84;;;5.47;90.35
5126;BME280;63008;53.112;8.896;2023-02-01T04:49:57;101018.03;;;5.45;90.99
5126;BME280;63008;53.112;8.896;2023-02-01T04:51:58;101025.91;;;5.47;91.25
5126;BME280;63008;53.112;8.896;2023-02-01T04:53:59;101031.59;;;5.50;90.56
5126;BME280;63008;53.112;8.896;2023-02-01T04:56:00;101017.38;;;5.53;90.47
5126;BME280;63008;53.112;8.896;2023-02-01T04:58:01;101011.44;;;5.51;91.01
5126;BME280;63008;53.112;8.896;2023-02-01T05:00:02;101020.03;;;5.58;90.46
5126;BME280;63008;53.112;8.896;2023-02-01T05:02:03;101011.94;;;5.53;90.67
5126;BME280;63008;53.112;8.896;2023-02-01T05:04:04;101015.09;;;5.60;90.57
5126;BME280;63008;53.112;8.896;2023-02-01T05:06:05;101019.50;;;5.56;90.97
5126;BME280;63008;53.112;8.896;2023-02-01T05:08:07;101003.41;;;5.60;90.82
5126;BME280;63008;53.112;8.896;2023-02-01T05:10:09;100995.25;;;5.60;90.48
5126;BME280;63008;53.112;8.896;2023-02-01T05:12:10;101003.31;;;5.65;89.76
5126;BME280;63008;53.112;8.896;2023-02-01T05:14:29;101003.84;;;5.67;89.51
5126;BME280;63008;53.112;8.896;2023-02-01T05:16:30;100997.28;;;5.68;89.16
5126;BME280;63008;53.112;8.896;2023-02-01T05:18:31;100987.22;;;5.68;89.50
5126;BME280;63008;53.112;8.896;2023-02-01T05:20:32;100995.59;;;5.72;89.00
5126;BME280;63008;53.112;8.896;2023-02-01T05:22:33;101009.50;;;5.70;89.30
5126;BME280;63008;53.112;8.896;2023-02-01T05:24:34;100994.56;;;5.68;89.95
5126;BME280;63008;53.112;8.896;2023-02-01T05:26:44;100993.53;;;5.64;90.19
5126;BME280;63008;53.112;8.896;2023-02-01T05:28:45;100992.22;;;5.61;90.24
5126;BME280;63008;53.112;8.896;2023-02-01T05:30:46;100979.41;;;5.62;90.85
5126;BME280;63008;53.112;8.896;2023-02-01T05:32:51;100989.22;;;5.63;90.72
5126;BME280;63008;53.112;8.896;2023-02-01T05:34:53;100985.16;;;5.60;90.67
5126;BME280;63008;53.112;8.896;2023-02-01T05:36:54;100974.50;;;5.64;89.79
5126;BME280;63008;53.112;8.896;2023-02-01T05:38:55;100993.31;;;5.60;90.18
5126;BME280;63008;53.112;8.896;2023-02-01T05:40:56;100974.22;;;5.65;89.31
5126;BME280;63008;53.112;8.896;2023-02-01T05:42:57;100988.31;;;5.67;89.14
5126;BME280;63008;53.112;8.896;2023-02-01T05:44:58;100994.38;;;5.64;89.20
5126;BME280;63008;53.112;8.896;2023-02-01T05:46:59;101006.56;;;5.67;88.60
5126;BME280;63008;53.112;8.896;2023-02-01T05:48:59;101000.59;;;5.65;88.64
5126;BME280;63008;53.112;8.896;2023-02-01T05:51:00;100994.06;;;5.66;88.86
5126;BME280;63008;53.112;8.896;2023-02-01T05:53:01;101007.28;;;5.72;88.14
5126;BME280;63008;53.112;8.896;2023-02-01T05:55:03;100993.16;;;5.70;88.24
5126;BME280;63008;53.112;8.896;2023-02-01T05:57:04;100998.63;;;5.70;88.81
5126;BME280;63008;53.112;8.896;2023-02-01T05:59:05;101005.09;;;5.74;88.32
5126;BME280;63008;53.112;8.896;2023-02-01T06:01:06;101010.31;;;5.71;88.82
5126;BME280;63008;53.112;8.896;2023-02-01T06:03:07;101010.03;;;5.72;88.83
5126;BME280;63008;53.112;8.896;2023-02-01T06:05:08;101013.56;;;5.73;88.74
5126;BME280;63008;53.112;8.896;2023-02-01T06:07:09;101015.53;;;5.67;89.43
5126;BME280;63008;53.112;8.896;2023-02-01T06:09:11;101025.09;;;5.65;89.37
5126;BME280;63008;53.112;8.896;2023-02-01T06:11:11;101015.31;;;5.64;90.04
5126;BME280;63008;53.112;8.896;2023-02-01T06:13:14;101021.63;;;5.59;90.60
5126;BME280;63008;53.112;8.896;2023-02-01T06:15:15;101027.03;;;5.64;90.07
5126;BME280;63008;53.112;8.896;2023-02-01T06:17:16;101013.28;;;5.56;91.12
5126;BME280;63008;53.112;8.896;2023-02-01T06:19:17;101009.72;;;5.55;90.92
5126;BME280;63008;53.112;8.896;2023-02-01T06:21:18;101011.06;;;5.58;90.89
5126;BME280;63008;53.112;8.896;2023-02-01T06:23:24;101027.31;;;5.63;90.35
5126;BME280;63008;53.112;8.896;2023-02-01T06:25:25;101027.53;;;5.66;89.71
5126;BME280;63008;53.112;8.896;2023-02-01T06:27:25;101018.91;;;5.59;90.95
5126;BME280;63008;53.112;8.896;2023-02-01T06:29:27;101025.97;;;5.60;90.25
5126;BME280;63008;53.112;8.896;2023-02-01T06:31:28;101049.97;;;5.58;91.02
5126;BME280;63008;53.112;8.896;2023-02-01T06:33:29;101033.25;;;5.65;89.84
5126;BME280;63008;53.112;8.896;2023-02-01T06:35:30;101043.78;;;5.71;89.13
5126;BME280;63008;53.112;8.896;2023-02-01T06:37:30;101039.69;;;5.74;88.37
5126;BME280;63008;53.112;8.896;2023-02-01T06:39:31;101045.31;;;5.77;88.31
5126;BME280;63008;53.112;8.896;2023-02-01T06:41:32;101048.88;;;5.78;88.06
5126;BME280;63008;53.112;8.896;2023-02-01T06:43:35;101046.41;;;5.81;87.33
5126;BME280;63008;53.112;8.896;2023-02-01T06:45:37;101054.78;;;5.85;87.36
5126;BME280;63008;53.112;8.896;2023-02-01T06:47:39;101056.13;;;5.87;87.41
5126;BME280;63008;53.112;8.896;2023-02-01T06:49:40;101052.78;;;5.90;86.58
5126;BME280;63008;53.112;8.896;2023-02-01T06:51:41;101055.53;;;5.90;87.21
5126;BME280;63008;53.112;8.896;2023-02-01T06:53:42;101058.53;;;5.89;86.94
5126;BME280;63008;53.112;8.896;2023-02-01T06:55:54;101056.53;;;5.94;86.89
5126;BME280;63008;53.112;8.896;2023-02-01T06:57:55;101056.75;;;5.98;86.54
5126;BME280;63008;53.112;8.896;2023-02-01T06:59:56;101057.00;;;6.01;86.08
5126;BME280;63008;53.112;8.896;2023-02-01T07:01:57;101045.00;;;6.02;86.41
5126;BME280;63008;53.112;8.896;2023-02-01T07:03:58;101054.69;;;6.08;85.90
5126;BME280;63008;53.112;8.896;2023-02-01T07:06:00;101058.44;;;6.12;85.89
5126;BME280;63008;53.112;8.896;2023-02-01T07:08:01;101056.81;;;6.11;85.56
5126;BME280;63008;53.112;8.896;2023-02-01T07:10:02;101067.53;;;6.08;86.02
5126;BME280;63008;53.112;8.896;2023-02-01T07:12:03;101056.22;;;6.14;85.74
5126;BME280;63008;53.112;8.896;2023-02-01T07:14:04;101054.69;;;6.08;85.72
5126;BME280;63008;53.112;8.896;2023-02-01T07:16:11;101058.53;;;6.07;85.88
5126;BME280;63008;53.112;8.896;2023-02-01T07:18:12;101059.91;;;6.05;84.80
5126;BME280;63008;53.112;8.896;2023-02-01T07:20:15;101072.00;;;5.99;85.57
5126;BME280;63008;53.112;8.896;2023-02-01T07:22:17;101070.66;;;5.96;85.49
5126;BME280;63008;53.112;8.896;2023-02-01T07:24:18;101072.88;;;5.94;85.61
5126;BME280;63008;53.112;8.896;2023-02-01T07:26:19;101072.38;;;5.92;85.48
5126;BME280;63008;53.112;8.896;2023-02-01T07:28:20;101084.44;;;5.86;85.94
5126;BME280;63008;53.112;8.896;2023-02-01T07:30:21;101080.53;;;5.92;85.96
5126;BME280;63008;53.112;8.896;2023-02-01T07:32:22;101073.19;;;5.93;86.06
5126;BME280;63008;53.112;8.896;2023-02-01T07:34:23;101068.84;;;5.92;85.89
5126;BME280;63008;53.112;8.896;2023-02-01T07:36:24;101070.66;;;5.96;84.79
5126;BME280;63008;53.112;8.896;2023-02-01T07:38:25;101071.78;;;5.95;84.93
5126;BME280;63008;53.112;8.896;2023-02-01T07:40:26;101060.88;;;5.95;85.28
5126;BME280;63008;53.112;8.896;2023-02-01T07:42:29;101067.16;;;5.96;84.91
5126;BME280;63008;53.112;8.896;2023-02-01T07:44:30;101073.91;;;5.98;84.78
5126;BME280;63008;53.112;8.896;2023-02-01T07:46:31;101070.66;;;5.96;84.71
5126;BME280;63008;53.112;8.896;2023-02-01T07:48:33;101084.78;;;5.98;84.60
5126;BME280;63008;53.112;8.896;2023-02-01T07:50:37;101090.56;;;5.97;85.24
5126;BME280;63008;53.112;8.896;2023-02-01T07:52:38;101081.56;;;5.96;85.54
5126;BME280;63008;53.112;8.896;2023-02-01T07:54:38;101095.31;;;6.05;85.18
5126;BME280;63008;53.112;8.896;2023-02-01T07:56:39;101086.59;;;6.08;85.35
5126;BME280;63008;53.112;8.896;2023-02-01T07:58:41;101102.25;;;6.16;85.01
5126;BME280;63008;53.112;8.896;2023-02-01T08:00:42;101097.53;;;6.21;84.41
5126;BME280;63008;53.112;8.896;2023-02-01T08:03:03;101087.75;;;6.20;84.43
5126;BME280;63008;53.112;8.896;2023-02-01T08:05:05;101110.66;;;6.19;84.32
5126;BME280;63008;53.112;8.896;2023-02-01T08:07:06;101105.34;;;6.28;83.73
5126;BME280;63008;53.112;8.896;2023-02-01T08:09:07;101092.50;;;6.28;84.06
5126;BME280;63008;53.112;8.896;2023-02-01T08:11:08;101088.75;;;6.24;84.31
5126;BME280;63008;53.112;8.896;2023-02-01T08:13:09;101111.91;;;6.27;84.07
5126;BME280;63008;53.112;8.896;2023-02-01T08:15:10;101109.09;;;6.32;84.23
5126;BME280;63008;53.112;8.896;2023-02-01T08:17:11;101105.81;;;6.48;82.80
5126;BME280;63008;53.112;8.896;2023-02-01T08:19:12;101110.75;;;6.46;83.47
5126;BME280;63008;53.112;8.896;2023-02-01T08:21:18;101105.91;;;6.43;83.92
5126;BME280;63008;53.112;8.896;2023-02-01T08:23:21;101128.72;;;6.47;83.80
5126;BME280;63008;53.112;8.896;2023-02-01T08:25:23;101119.91;;;6.37;84.78
5126;BME280;63008;53.112;8.896;2023-02-01T08:27:24;101120.13;;;6.22;86.85
5126;BME280;63008;53.112;8.896;2023-02-01T08:29:25;101117.34;;;6.08;88.20
5126;BME280;63008;53.112;8.896;2023-02-01T08:31:28;101131.63;;;6.00;89.48
5126;BME280;63008;53.112;8.896;2023-02-01T08:33:29;101108.28;;;5.94;90.10
5126;BME280;63008;53.112;8.896;2023-02-01T08:35:30;101116.97;;;5.96;90.40
5126;BME280;63008;53.112;8.896;2023-02-01T08:37:31;101120.19;;;5.98;90.76
5126;BME280;63008;53.112;8.896;2023-02-01T08:39:32;101116.00;;;6.06;89.25
5126;BME280;63008;53.112;8.896;2023-02-01T08:41:33;101118.72;;;6.06;89.35
5126;BME280;63008;53.112;8.896;2023-02-01T08:43:34;101100.91;;;6.13;88.37
5126;BME280;63008;53.112;8.896;2023-02-01T08:45:39;101104.88;;;6.21;87.99
5126;BME280;63008;53.112;8.896;2023-02-01T08:47:40;101110.84;;;6.23;88.43
5126;BME280;63008;53.112;8.896;2023-02-01T08:49:41;101113.94;;;6.35;85.92
5126;BME280;63008;53.112;8.896;2023-02-01T08:51:42;101115.41;;;6.46;85.94
5126;BME280;63008;53.112;8.896;2023-02-01T08:53:43;101123.63;;;6.59;84.27
5126;BME280;63008;53.112;8.896;2023-02-01T08:55:46;101123.13;;;6.57;84.31
5126;BME280;63008;53.112;8.896;2023-02-01T08:57:47;101116.56;;;6.58;84.14
5126;BME280;63008;53.112;8.896;2023-02-01T08:59:48;101121.50;;;6.56;84.22
5126;BME280;63008;53.112;8.896;2023-02-01T09:01:49;101118.38;;;6.63;82.24
5126;BME280;63008;53.112;8.896;2023-02-01T09:03:50;101116.56;;;6.58;82.92
5126;BME280;63008;53.112;8.896;2023-02-01T09:05:51;101118.44;;;6.58;82.83
5126;BME280;63008;53.112;8.896;2023-02-01T09:07:53;101099.25;;;6.49;83.53
5126;BME280;63008;53.112;8.896;2023-02-01T09:09:53;101103.69;;;6.45;84.41
5126;BME280;63008;53.112;8.896;2023-02-01T09:11:56;101118.63;;;6.48;84.83
5126;BME280;63008;53.112;8.896;2023-02-01T09:13:57;101106.03;;;6.52;83.73
5126;BME280;63008;53.112;8.896;2023-02-01T09:15:58;101100.69;;;6.60;83.22
5126;BME280;63008;53.112;8.896;2023-02-01T09:18:00;101110.63;;;6.70;82.46
5126;BME280;63008;53.112;8.896;2023-02-01T09:20:04;101096.25;;;6.64;83.74
5126;BME280;63008;53.112;8.896;2023-02-01T09:22:05;101106.00;;;6.70;83.45
5126;BME280;63008;53.112;8.896;2023-02-01T09:24:06;101107.59;;;6.71;83.21
5126;BME280;63008;53.112;8.896;2023-02-01T09:26:08;101105.88;;;6.75;82.40
5126;BME280;63008;53.112;8.896;2023-02-01T09:28:09;101090.84;;;6.78;83.24
5126;BME280;63008;53.112;8.896;2023-02-01T09:30:11;101093.38;;;6.88;82.30
5126;BME280;63008;53.112;8.896;2023-02-01T09:32:12;101090.25;;;6.81;82.47
5126;BME280;63008;53.112;8.896;2023-02-01T09:34:13;101081.16;;;6.85;82.59
5126;BME280;63008;53.112;8.896;2023-02-01T09:36:14;101082.75;;;6.86;82.93
5126;BME280;63008;53.112;8.896;2023-02-01T09:38:15;101094.72;;;6.90;82.61
5126;BME280;63008;53.112;8.896;2023-02-01T09:40:16;101082.19;;;6.89;82.48
5126;BME280;63008;53.112;8.896;2023-02-01T09:42:47;101074.63;;;7.00;81.42
5126;BME280;63008;53.112;8.896;2023-02-01T09:47:11;101083.09;;;6.98;81.29
5126;BME280;63008;53.112;8.896;2023-02-01T09:49:19;101076.84;;;6.98;80.43
5126;BME280;63008;53.112;8.896;2023-02-01T09:51:31;101090.56;;;6.93;80.75
5126;BME280;63008;53.112;8.896;2023-02-01T09:53:37;101092.06;;;6.85;81.45
5126;BME280;63008;53.112;8.896;2023-02-01T09:55:47;101079.84;;;6.83;82.12
5126;BME280;63008;53.112;8.896;2023-02-01T09:57:54;101079.13;;;6.77;81.52
5126;BME280;63008;53.112;8.896;2023-02-01T10:00:02;101077.19;;;6.78;81.46
5126;BME280;63008;53.112;8.896;2023-02-01T10:02:12;101072.56;;;6.78;81.09
5126;BME280;63008;53.112;8.896;2023-02-01T10:04:17;101096.41;;;6.86;80.10
5126;BME280;63008;53.112;8.896;2023-02-01T10:09:04;101071.28;;;6.89;80.52
5126;BME280;63008;53.112;8.896;2023-02-01T10:11:29;101068.03;;;6.87;81.28
5126;BME280;63008;53.112;8.896;2023-02-01T10:14:10;101060.03;;;6.91;80.05
5126;BME280;63008;53.112;8.896;2023-02-01T10:16:36;101064.88;;;6.94;80.14
5126;BME280;63008;53.112;8.896;2023-02-01T10:18:57;101061.97;;;6.90;80.43
5126;BME280;63008;53.112;8.896;2023-02-01T10:21:10;101070.34;;;6.94;80.00
5126;BME280;63008;53.112;8.896;2023-02-01T10:25:36;101053.69;;;6.95;81.22
5126;BME280;63008;53.112;8.896;2023-02-01T10:27:38;101039.84;;;6.92;80.60
5126;BME280;63008;53.112;8.896;2023-02-01T10:29:45;101037.31;;;6.95;80.63
5126;BME280;63008;53.112;8.896;2023-02-01T10:31:47;101045.41;;;6.87;81.10
5126;BME280;63008;53.112;8.896;2023-02-01T10:33:51;101042.16;;;6.85;81.25
5126;BME280;63008;53.112;8.896;2023-02-01T10:36:03;101035.81;;;6.89;80.83
5126;BME280;63008;53.112;8.896;2023-02-01T10:38:16;101032.06;;;6.85;81.07
5126;BME280;63008;53.112;8.896;2023-02-01T10:40:21;101028.03;;;6.83;81.59
5126;BME280;63008;53.112;8.896;2023-02-01T10:42:27;101022.88;;;6.81;81.67
5126;BME280;63008;53.112;8.896;2023-02-01T10:44:30;101027.31;;;6.77;83.82
5126;BME280;63008;53.112;8.896;2023-02-01T10:46:32;101019.63;;;6.66;85.26
5126;BME280;63008;53.112;8.896;2023-02-01T10:48:34;101019.28;;;6.54;85.59
5126;BME280;63008;53.112;8.896;2023-02-01T10:50:41;101015.44;;;6.41;87.37
5126;BME280;63008;53.112;8.896;2023-02-01T10:52:49;101029.75;;;6.33;87.85
5126;BME280;63008;53.112;8.896;2023-02-01T10:54:52;101002.81;;;6.32;88.01
5126;BME280;63008;53.112;8.896;2023-02-01T10:56:53;100993.63;;;6.28;88.76
5126;BME280;63008;53.112;8.896;2023-02-01T10:59:02;101000.69;;;6.29;89.20
5126;BME280;63008;53.112;8.896;2023-02-01T11:01:08;101000.75;;;6.24;88.38
5126;BME280;63008;53.112;8.896;2023-02-01T11:03:39;101001.06;;;6.22;88.69
5126;BME280;63008;53.112;8.896;2023-02-01T11:05:45;100998.81;;;6.11;89.54
5126;BME280;63008;53.112;8.896;2023-02-01T11:07:49;100985.84;;;6.03;89.64
5126;BME280;63008;53.112;8.896;2023-02-01T11:09:53;100977.69;;;6.03;90.24
5126;BME280;63008;53.112;8.896;2023-02-01T11:11:59;100983.44;;;6.01;91.02
5126;BME280;63008;53.112;8.896;2023-02-01T11:14:13;100986.88;;;6.07;90.36
5126;BME280;63008;53.112;8.896;2023-02-01T11:16:14;100956.03;;;6.11;89.53
5126;BME280;63008;53.112;8.896;2023-02-01T11:18:18;100969.47;;;6.08;90.10
5126;BME280;63008;53.112;8.896;2023-02-01T11:22:32;100960.25;;;6.04;90.88
5126;BME280;63008;53.112;8.896;2023-02-01T11:24:37;100979.91;;;6.01;89.39
5126;BME280;63008;53.112;8.896;2023-02-01T11:26:40;100960.50;;;5.89;88.72
5126;BME280;63008;53.112;8.896;2023-02-01T11:28:50;100936.59;;;5.86;89.51